Time;durP1;ratioP1;P1;durP2;ratioP2;P2;SDS_P1;SDS_P2;PMS_P1;PMS_P2;Temp;Humidity;BMP_temperature;BMP_pressure;BME280_temperature;BME280_humidity;BME280_pressure;Samples;Min_cycle;Max_cycle;Signal;HPM_P1;HPM_P2
2021/12/16 00:01:50;;;;;;;;;;;;;;;12.90;43.03;100914.69;4470528;32;34544;-77
2021/12/16 00:09:25;;;;;;;;;;;;;;;13.13;42.70;100923.91;4455050;32;32770;-77
2021/12/16 00:31:34;;;;;;;;;;;;;;;13.02;42.48;100920.09;4458409;32;34459;-76
2021/12/16 00:34:04;;;;;;;;;;;;;;;13.02;42.37;100919.25;4467515;32;34456;-74
2021/12/16 00:36:33;;;;;;;;;;;;;;;13.04;42.28;100922.69;4458162;32;33467;-74
2021/12/16 00:39:02;;;;;;;;;;;;;;;12.77;43.07;100936.09;4472585;32;35115;-75
2021/12/16 00:41:30;;;;;;;;;;;;;;;12.87;42.73;100926.47;4475449;32;35497;-75
2021/12/16 00:44:23;;;;;;;;;;;;;;;12.79;42.78;100927.00;4472477;32;33137;-74
2021/12/16 00:54:46;;;;;;;;;;;;;;;12.74;42.67;100925.56;4477031;32;35397;-74
2021/12/16 00:57:17;;;;;;;;;;;;;;;12.59;43.15;100924.75;4455462;32;32704;-75
2021/12/16 00:59:48;;;;;;;;;;;;;;;12.54;43.28;100932.22;4469734;32;34792;-73
2021/12/16 01:35:08;;;;;;;;;;;;;;;12.12;45.32;100918.72;4461044;32;34281;-79
2021/12/16 01:38:25;;;;;;;;;;;;;;;12.22;44.63;100912.78;4476595;32;35655;-79
2021/12/16 01:46:23;;;;;;;;;;;;;;;12.47;44.13;100909.41;4469640;32;33135;-76
2021/12/16 01:51:37;;;;;;;;;;;;;;;12.62;43.90;100895.00;4466379;32;33667;-77
2021/12/16 01:57:06;;;;;;;;;;;;;;;12.56;44.29;100898.94;4476839;32;35205;-76
2021/12/16 01:59:36;;;;;;;;;;;;;;;12.64;43.97;100893.06;4455403;32;33235;-80
2021/12/16 02:02:14;;;;;;;;;;;;;;;12.77;43.67;100896.66;4473915;32;33603;-78
2021/12/16 02:05:06;;;;;;;;;;;;;;;12.81;43.54;100892.84;4462701;32;34795;-77
2021/12/16 02:07:54;;;;;;;;;;;;;;;12.71;44.13;100894.41;4456377;32;34483;-76
2021/12/16 02:10:24;;;;;;;;;;;;;;;12.76;43.86;100889.59;4456500;32;34341;-79
2021/12/16 02:29:45;;;;;;;;;;;;;;;12.96;43.53;100882.88;4468170;32;35232;-74
2021/12/16 02:32:28;;;;;;;;;;;;;;;12.89;43.86;100878.03;4457505;32;34549;-75
2021/12/16 02:37:23;;;;;;;;;;;;;;;12.94;43.77;100874.09;4470502;32;34315;-75
2021/12/16 02:39:51;;;;;;;;;;;;;;;13.21;42.96;100878.56;4454667;32;34851;-77
2021/12/16 02:42:21;;;;;;;;;;;;;;;13.25;43.03;100880.94;4476675;32;35331;-76
2021/12/16 02:50:23;;;;;;;;;;;;;;;13.22;43.45;100870.38;4459389;32;34285;-76
2021/12/16 02:52:51;;;;;;;;;;;;;;;13.26;43.05;100869.25;4447590;32;34664;-75
2021/12/16 02:55:20;;;;;;;;;;;;;;;13.16;43.20;100867.25;4452070;32;33736;-75
2021/12/16 02:57:56;;;;;;;;;;;;;;;13.31;42.73;100868.06;4463172;32;33976;-74
2021/12/16 03:00:23;;;;;;;;;;;;;;;13.18;43.08;100865.31;4454667;32;34242;-75
2021/12/16 03:02:51;;;;;;;;;;;;;;;13.14;43.07;100867.34;4465002;32;34220;-75
2021/12/16 03:05:20;;;;;;;;;;;;;;;13.14;43.05;100864.66;4470492;32;33718;-75
2021/12/16 03:07:49;;;;;;;;;;;;;;;13.00;43.58;100857.53;4467606;32;33731;-75
2021/12/16 03:10:50;;;;;;;;;;;;;;;12.76;44.43;100846.59;4468992;32;34048;-76
2021/12/16 03:13:09;;;;;;;;;;;;;;;12.53;44.95;100849.94;4470108;32;34413;-75
2021/12/16 03:18:23;;;;;;;;;;;;;;;12.47;45.34;100853.87;4465856;32;34846;-75
2021/12/16 03:20:56;;;;;;;;;;;;;;;12.58;45.08;100851.38;4461170;32;34044;-77
2021/12/16 03:23:41;;;;;;;;;;;;;;;12.50;45.45;100847.47;4473939;32;34120;-73
2021/12/16 03:34:33;;;;;;;;;;;;;;;12.64;45.01;100851.91;4477503;32;34406;-74
2021/12/16 03:37:18;;;;;;;;;;;;;;;12.51;45.23;100852.72;4471085;32;34459;-74
2021/12/16 03:39:46;;;;;;;;;;;;;;;12.68;44.90;100848.06;4463527;32;33853;-76
2021/12/16 03:42:14;;;;;;;;;;;;;;;12.69;44.84;100855.19;4469625;32;35139;-73
2021/12/16 03:44:56;;;;;;;;;;;;;;;12.74;44.72;100856.56;4458565;32;34599;-73
2021/12/16 03:47:41;;;;;;;;;;;;;;;12.58;45.25;100853.19;4457157;32;33285;-73
2021/12/16 03:50:11;;;;;;;;;;;;;;;12.48;45.60;100847.53;4459429;32;33020;-73
2021/12/16 03:52:38;;;;;;;;;;;;;;;12.51;45.50;100851.84;4453316;32;34087;-72
2021/12/16 03:55:07;;;;;;;;;;;;;;;12.53;45.45;100849.94;4459221;32;34168;-72
2021/12/16 03:57:34;;;;;;;;;;;;;;;12.52;45.67;100843.72;4454686;32;33031;-75
2021/12/16 04:00:29;;;;;;;;;;;;;;;12.54;45.70;100848.97;4456441;32;36405;-75
2021/12/16 04:02:57;;;;;;;;;;;;;;;12.48;45.72;100850.22;4459977;32;34072;-77
2021/12/16 04:05:26;;;;;;;;;;;;;;;12.80;44.90;100849.94;4455837;32;32995;-79
2021/12/16 04:07:55;;;;;;;;;;;;;;;12.69;45.11;100855.19;4452891;32;33744;-73
2021/12/16 04:10:31;;;;;;;;;;;;;;;12.79;44.60;100851.75;4448811;32;34241;-75
2021/12/16 04:13:00;;;;;;;;;;;;;;;12.79;44.61;100846.41;4453885;32;33581;-74
2021/12/16 04:15:28;;;;;;;;;;;;;;;12.78;44.73;100849.19;4455128;32;35136;-74
2021/12/16 04:17:56;;;;;;;;;;;;;;;12.63;44.86;100847.53;4452268;32;34257;-74
2021/12/16 04:20:24;;;;;;;;;;;;;;;12.33;45.70;100846.72;4454117;32;34264;-78
2021/12/16 04:22:52;;;;;;;;;;;;;;;12.68;44.93;100848.94;4454316;32;35400;-75
2021/12/16 04:25:22;;;;;;;;;;;;;;;12.75;44.74;100849.41;4455126;32;34982;-78
2021/12/16 04:27:51;;;;;;;;;;;;;;;12.76;44.57;100856.50;4453913;32;33513;-78
2021/12/16 04:30:19;;;;;;;;;;;;;;;12.80;44.40;100844.56;4462409;32;34014;-74
2021/12/16 04:32:47;;;;;;;;;;;;;;;12.45;45.06;100842.38;4452514;32;34080;-74
2021/12/16 04:35:15;;;;;;;;;;;;;;;12.44;45.52;100842.50;4455738;32;34132;-77
2021/12/16 04:37:43;;;;;;;;;;;;;;;12.65;45.16;100846.47;4454099;32;33493;-77
2021/12/16 04:40:12;;;;;;;;;;;;;;;12.09;46.92;100857.22;4457912;32;33800;-80
2021/12/16 04:42:41;;;;;;;;;;;;;;;12.57;45.56;100851.47;4458034;32;34390;-78
2021/12/16 04:45:10;;;;;;;;;;;;;;;12.89;44.97;100856.53;4451643;32;35031;-76
2021/12/16 04:47:39;;;;;;;;;;;;;;;12.72;45.25;100855.84;4472349;32;33300;-77
2021/12/16 04:50:07;;;;;;;;;;;;;;;12.98;44.79;100853.22;4471497;32;34328;-79
2021/12/16 04:52:35;;;;;;;;;;;;;;;13.11;44.23;100842.53;4477808;32;32871;-77
2021/12/16 04:55:07;;;;;;;;;;;;;;;13.10;44.27;100847.03;4473178;32;35322;-70
2021/12/16 04:57:35;;;;;;;;;;;;;;;13.12;44.21;100844.22;4458422;32;33500;-78
2021/12/16 05:00:04;;;;;;;;;;;;;;;13.26;43.63;100842.38;4459591;32;33863;-79
2021/12/16 05:02:33;;;;;;;;;;;;;;;13.33;43.54;100836.56;4447460;32;33369;-80
2021/12/16 05:05:01;;;;;;;;;;;;;;;13.31;43.57;100830.44;4475989;32;34557;-80
2021/12/16 05:07:28;;;;;;;;;;;;;;;13.27;43.99;100835.16;4448487;32;34983;-76
2021/12/16 05:12:32;;;;;;;;;;;;;;;12.89;44.72;100841.28;4454328;32;34014;-77
2021/12/16 05:15:00;;;;;;;;;;;;;;;13.08;44.10;100837.34;4457048;32;34521;-75
2021/12/16 05:17:33;;;;;;;;;;;;;;;13.02;44.25;100839.47;4471638;32;34170;-75
2021/12/16 05:20:07;;;;;;;;;;;;;;;13.25;43.61;100839.75;4473537;32;34767;-75
2021/12/16 05:26:14;;;;;;;;;;;;;;;12.90;44.39;100842.97;4472728;32;34333;-76
2021/12/16 05:28:16;;;;;;;;;;;;;;;13.01;44.03;100844.97;4461647;32;33568;-77
2021/12/16 05:30:43;;;;;;;;;;;;;;;13.20;43.26;100853.50;4474660;32;33887;-78
2021/12/16 05:33:11;;;;;;;;;;;;;;;13.18;43.51;100847.34;4459661;32;32927;-77
2021/12/16 05:35:59;;;;;;;;;;;;;;;13.00;43.93;100851.28;4456419;32;34725;-78
2021/12/16 05:38:28;;;;;;;;;;;;;;;13.09;43.79;100847.97;4461521;32;34678;-79
2021/12/16 05:40:55;;;;;;;;;;;;;;;13.08;43.91;100854.34;4474848;32;34338;-77
2021/12/16 05:43:24;;;;;;;;;;;;;;;12.57;45.03;100854.16;4473835;32;35431;-77
2021/12/16 05:45:54;;;;;;;;;;;;;;;12.68;44.91;100857.00;4462011;32;35002;-77
2021/12/16 05:48:26;;;;;;;;;;;;;;;12.86;44.85;100865.66;4464687;32;32109;-78
2021/12/16 05:50:55;;;;;;;;;;;;;;;12.99;44.38;100863.00;4457968;32;33811;-78
2021/12/16 05:53:23;;;;;;;;;;;;;;;13.15;43.68;100862.84;4474835;32;36225;-77
2021/12/16 05:55:51;;;;;;;;;;;;;;;13.00;44.19;100865.59;4467127;32;35536;-77
2021/12/16 05:58:20;;;;;;;;;;;;;;;12.73;45.15;100867.44;4479508;32;33688;-78
2021/12/16 06:00:50;;;;;;;;;;;;;;;12.38;46.20;100875.09;4464733;32;34253;-78
2021/12/16 06:03:18;;;;;;;;;;;;;;;12.57;45.43;100864.88;4466238;32;35095;-77
2021/12/16 06:05:46;;;;;;;;;;;;;;;12.38;46.39;100867.03;4454922;32;34179;-76
2021/12/16 06:08:13;;;;;;;;;;;;;;;12.78;45.48;100868.00;4458185;32;32260;-76
2021/12/16 06:13:38;;;;;;;;;;;;;;;13.12;44.59;100863.03;4471085;32;34163;-76
2021/12/16 06:27:08;;;;;;;;;;;;;;;12.86;45.38;100867.47;4472056;32;32827;-77
2021/12/16 06:29:36;;;;;;;;;;;;;;;12.89;44.98;100865.44;4470142;32;34177;-76
2021/12/16 06:32:04;;;;;;;;;;;;;;;12.95;44.92;100874.94;4454703;32;34359;-80
2021/12/16 06:34:31;;;;;;;;;;;;;;;13.08;44.73;100874.97;4456030;32;34309;-78
2021/12/16 06:36:58;;;;;;;;;;;;;;;13.09;44.72;100872.16;4472868;32;34251;-78
2021/12/16 06:39:26;;;;;;;;;;;;;;;13.01;44.91;100869.16;4457104;32;33770;-79
2021/12/16 06:41:58;;;;;;;;;;;;;;;13.18;44.25;100878.75;4452458;32;35400;-78
2021/12/16 06:44:31;;;;;;;;;;;;;;;13.32;44.01;100875.16;4457640;32;34967;-78
2021/12/16 06:47:05;;;;;;;;;;;;;;;13.00;44.83;100881.75;4464264;32;34356;-81
2021/12/16 06:49:34;;;;;;;;;;;;;;;13.09;44.44;100880.22;4450028;32;33490;-78
2021/12/16 06:52:05;;;;;;;;;;;;;;;13.42;43.62;100876.28;4458017;32;33576;-79
2021/12/16 06:54:40;;;;;;;;;;;;;;;13.69;42.92;100887.81;4473867;32;35170;-79
2021/12/16 07:00:09;;;;;;;;;;;;;;;13.52;43.38;100893.50;4476807;32;32078;-81
2021/12/16 07:02:47;;;;;;;;;;;;;;;13.57;43.23;100895.84;4460220;32;34409;-79
2021/12/16 07:05:16;;;;;;;;;;;;;;;13.51;43.41;100899.81;4462218;32;34413;-79
2021/12/16 07:07:43;;;;;;;;;;;;;;;13.35;43.85;100891.09;4462340;32;34485;-79
2021/12/16 07:10:12;;;;;;;;;;;;;;;13.28;44.12;100896.88;4473943;32;34566;-80
2021/12/16 07:12:46;;;;;;;;;;;;;;;13.43;43.82;100899.50;4470601;32;35073;-81
2021/12/16 07:15:21;;;;;;;;;;;;;;;13.22;44.40;100910.69;4459064;32;34055;-79
2021/12/16 07:17:49;;;;;;;;;;;;;;;13.04;44.98;100898.50;4459577;32;35338;-79
2021/12/16 07:20:18;;;;;;;;;;;;;;;13.24;44.30;100897.16;4461666;32;33566;-79
2021/12/16 07:22:45;;;;;;;;;;;;;;;13.40;44.18;100897.87;4472245;32;32586;-79
2021/12/16 07:25:13;;;;;;;;;;;;;;;13.10;45.00;100899.91;4459461;32;35224;-78
2021/12/16 07:27:41;;;;;;;;;;;;;;;13.13;45.04;100891.63;4462829;32;34433;-80
2021/12/16 07:30:09;;;;;;;;;;;;;;;12.88;45.47;100903.19;4476101;32;33740;-77
2021/12/16 07:32:36;;;;;;;;;;;;;;;12.59;46.56;100904.13;4453948;32;34085;-80
2021/12/16 07:35:05;;;;;;;;;;;;;;;12.79;45.75;100908.19;4454977;32;35069;-78
2021/12/16 07:37:33;;;;;;;;;;;;;;;13.10;45.14;100905.28;4462754;32;35317;-80
2021/12/16 07:40:06;;;;;;;;;;;;;;;13.22;44.82;100905.31;4459159;32;32488;-78
2021/12/16 07:42:44;;;;;;;;;;;;;;;13.09;45.52;100901.75;4476380;32;35123;-77
2021/12/16 07:45:12;;;;;;;;;;;;;;;13.19;45.18;100892.13;4457001;32;34417;-77
2021/12/16 07:47:40;;;;;;;;;;;;;;;12.52;47.09;100900.12;4475449;32;34508;-76
2021/12/16 07:50:08;;;;;;;;;;;;;;;12.94;45.92;100895.56;4470553;32;34936;-78
2021/12/16 07:52:36;;;;;;;;;;;;;;;13.08;45.86;100897.34;4474812;32;34417;-76
2021/12/16 07:55:04;;;;;;;;;;;;;;;12.85;46.43;100888.13;4468617;32;34386;-76
2021/12/16 07:57:31;;;;;;;;;;;;;;;12.98;45.84;100898.91;4465733;32;34407;-76
2021/12/16 07:59:59;;;;;;;;;;;;;;;13.17;45.68;100898.56;4465813;32;33088;-77
2021/12/16 08:02:26;;;;;;;;;;;;;;;13.10;45.80;100900.78;4467118;32;32744;-77
2021/12/16 08:04:54;;;;;;;;;;;;;;;12.84;46.53;100899.84;4465930;32;32933;-78
2021/12/16 08:07:21;;;;;;;;;;;;;;;12.99;46.21;100900.63;4465367;32;33487;-77
2021/12/16 08:09:49;;;;;;;;;;;;;;;13.28;45.53;100891.50;4452012;32;33670;-77
2021/12/16 08:12:17;;;;;;;;;;;;;;;13.26;45.45;100901.50;4451239;32;34085;-78
2021/12/16 08:14:44;;;;;;;;;;;;;;;13.06;46.01;100904.63;4468343;32;34415;-78
2021/12/16 08:17:12;;;;;;;;;;;;;;;13.20;45.48;100904.59;4460979;32;35146;-77
2021/12/16 08:19:40;;;;;;;;;;;;;;;12.96;46.21;100904.38;4469848;32;35034;-77
2021/12/16 08:22:07;;;;;;;;;;;;;;;13.22;45.68;100904.47;4454659;32;34411;-79
2021/12/16 08:24:34;;;;;;;;;;;;;;;13.03;46.33;100902.16;4475182;32;34116;-77
2021/12/16 08:27:07;;;;;;;;;;;;;;;13.06;45.96;100910.00;4473461;32;35225;-77
2021/12/16 08:29:34;;;;;;;;;;;;;;;12.96;46.58;100904.38;4455850;32;32051;-77
2021/12/16 08:32:02;;;;;;;;;;;;;;;12.43;48.24;100908.75;4465418;32;34221;-76
2021/12/16 08:34:32;;;;;;;;;;;;;;;12.89;46.98;100912.97;4447475;32;35348;-76
2021/12/16 08:37:00;;;;;;;;;;;;;;;13.23;45.99;100906.22;4477891;32;34409;-77
2021/12/16 08:39:27;;;;;;;;;;;;;;;12.88;46.80;100895.13;4462584;32;33057;-76
2021/12/16 08:41:56;;;;;;;;;;;;;;;13.27;45.87;100903.22;4473764;32;34316;-78
2021/12/16 08:44:23;;;;;;;;;;;;;;;13.35;45.77;100896.47;4474153;32;34449;-76
2021/12/16 08:46:53;;;;;;;;;;;;;;;12.57;47.95;100897.13;4457708;32;33199;-77
2021/12/16 08:49:20;;;;;;;;;;;;;;;12.74;47.88;100898.69;4466768;32;33359;-77
2021/12/16 08:51:49;;;;;;;;;;;;;;;13.08;46.88;100893.78;4457140;32;32857;-78
2021/12/16 08:54:17;;;;;;;;;;;;;;;12.13;49.53;100906.19;4458718;32;34230;-77
2021/12/16 08:56:45;;;;;;;;;;;;;;;12.56;48.37;100909.69;4456569;32;35352;-77
2021/12/16 08:59:12;;;;;;;;;;;;;;;12.55;48.46;100904.41;4459828;32;32451;-77
2021/12/16 09:01:42;;;;;;;;;;;;;;;12.73;48.51;100905.91;4479284;32;35101;-77
2021/12/16 09:04:09;;;;;;;;;;;;;;;12.59;48.96;100906.81;4475788;32;33388;-79
2021/12/16 09:06:37;;;;;;;;;;;;;;;11.81;51.42;100911.72;4450480;32;34101;-78
2021/12/16 09:09:05;;;;;;;;;;;;;;;11.60;52.05;100902.28;4459173;32;33484;-79
2021/12/16 09:11:38;;;;;;;;;;;;;;;11.76;51.67;100896.84;4477267;32;32647;-77
2021/12/16 09:14:06;;;;;;;;;;;;;;;12.26;50.44;100896.41;4461694;32;33974;-78
2021/12/16 09:16:34;;;;;;;;;;;;;;;11.32;52.67;100895.88;4463215;32;35221;-78
2021/12/16 09:19:02;;;;;;;;;;;;;;;11.60;52.86;100888.88;4472922;32;33388;-79
2021/12/16 09:21:30;;;;;;;;;;;;;;;12.10;51.35;100891.16;4477635;32;33285;-77
2021/12/16 09:23:58;;;;;;;;;;;;;;;11.81;51.87;100895.63;4476717;32;34004;-78
2021/12/16 09:26:25;;;;;;;;;;;;;;;11.75;52.02;100893.31;4460900;32;33011;-77
2021/12/16 09:28:53;;;;;;;;;;;;;;;12.19;50.88;100892.38;4474175;32;34666;-77
2021/12/16 09:32:45;;;;;;;;;;;;;;;10.82;55.32;100888.13;4483054;31;889277;-76
2021/12/16 09:35:13;;;;;;;;;;;;;;;11.85;52.04;100894.50;4503924;31;33137;-76
2021/12/16 09:37:40;;;;;;;;;;;;;;;10.94;54.56;100899.00;4497174;31;33949;-75
2021/12/16 09:40:10;;;;;;;;;;;;;;;11.91;51.64;100892.38;4504634;31;33936;-76
2021/12/16 09:42:39;;;;;;;;;;;;;;;11.03;53.89;100892.25;4502967;31;33892;-75
2021/12/16 09:45:08;;;;;;;;;;;;;;;11.51;53.08;100895.66;4500490;31;33452;-76
2021/12/16 09:47:37;;;;;;;;;;;;;;;10.65;54.91;100891.78;4500853;31;34021;-76
2021/12/16 09:50:06;;;;;;;;;;;;;;;11.78;52.18;100895.81;4504446;31;34280;-74
2021/12/16 09:52:33;;;;;;;;;;;;;;;11.17;54.06;100886.06;4499669;31;33300;-75
2021/12/16 09:55:01;;;;;;;;;;;;;;;11.59;52.71;100896.06;4495726;31;33091;-75
2021/12/16 09:57:29;;;;;;;;;;;;;;;11.47;52.90;100893.25;4495305;31;34194;-74
2021/12/16 09:59:56;;;;;;;;;;;;;;;11.50;53.15;100901.13;4501749;31;34341;-74
2021/12/16 10:02:24;;;;;;;;;;;;;;;11.76;52.04;100896.84;4501855;31;33428;-75
2021/12/16 10:04:51;;;;;;;;;;;;;;;11.99;51.79;100890.09;4490935;31;33428;-76
2021/12/16 10:07:20;;;;;;;;;;;;;;;12.63;49.75;100880.59;4503875;31;34351;-75
2021/12/16 10:09:49;;;;;;;;;;;;;;;12.18;50.90;100874.56;4488387;31;35501;-74
2021/12/16 10:12:22;;;;;;;;;;;;;;;12.57;49.84;100876.50;4502749;31;34105;-74
2021/12/16 10:17:24;;;;;;;;;;;;;;;12.11;51.05;100874.09;4501454;31;33768;-76
2021/12/16 10:19:55;;;;;;;;;;;;;;;12.57;50.29;100865.75;4506982;31;33831;-78
2021/12/16 10:22:23;;;;;;;;;;;;;;;12.96;49.26;100865.91;4491840;31;34512;-75
2021/12/16 10:24:51;;;;;;;;;;;;;;;12.42;50.54;100860.50;4503822;31;33450;-76
2021/12/16 10:27:20;;;;;;;;;;;;;;;12.60;50.02;100853.94;4501116;31;33918;-75
2021/12/16 10:29:50;;;;;;;;;;;;;;;12.80;49.61;100852.62;4489931;32;35012;-79
2021/12/16 10:32:39;;;;;;;;;;;;;;;11.97;51.21;100857.97;4480449;32;35023;-79
2021/12/16 10:35:17;;;;;;;;;;;;;;;12.57;50.36;100854.16;4481074;32;34835;-78
2021/12/16 10:37:46;;;;;;;;;;;;;;;13.48;47.31;100857.00;4486793;32;32919;-77
2021/12/16 10:40:28;;;;;;;;;;;;;;;13.37;47.51;100859.59;4487743;32;34035;-77
2021/12/16 10:42:57;;;;;;;;;;;;;;;12.98;48.46;100851.41;4484808;31;34127;-80
2021/12/16 10:45:35;;;;;;;;;;;;;;;12.86;48.79;100854.06;4476265;32;33242;-77
2021/12/16 10:48:06;;;;;;;;;;;;;;;12.91;48.25;100851.94;4472943;32;32909;-77
2021/12/16 10:50:52;;;;;;;;;;;;;;;12.69;48.84;100841.75;4473826;32;34166;-77
2021/12/16 10:53:38;;;;;;;;;;;;;;;13.25;47.89;100845.16;4477621;32;33870;-79
2021/12/16 10:56:06;;;;;;;;;;;;;;;12.16;50.02;100841.56;4474873;32;33566;-76
2021/12/16 10:58:45;;;;;;;;;;;;;;;13.01;48.61;100844.97;4475483;32;34302;-77
2021/12/16 11:01:30;;;;;;;;;;;;;;;13.52;47.13;100845.09;4482342;32;35285;-77
2021/12/16 11:03:58;;;;;;;;;;;;;;;13.66;46.91;100846.81;4473236;32;34185;-77
2021/12/16 11:06:35;;;;;;;;;;;;;;;13.85;46.44;100843.69;4477980;32;31949;-77
2021/12/16 11:09:24;;;;;;;;;;;;;;;13.32;47.48;100845.59;4473459;32;33962;-78
2021/12/16 11:12:24;;;;;;;;;;;;;;;14.15;45.80;100846.00;4468953;32;34422;-75
2021/12/16 11:14:57;;;;;;;;;;;;;;;14.20;45.52;100846.53;4439620;32;34162;-75
2021/12/16 11:17:26;;;;;;;;;;;;;;;14.14;45.71;100837.06;4480695;32;33109;-75
2021/12/16 11:19:55;;;;;;;;;;;;;;;14.56;44.80;100837.59;4476130;32;35015;-75
2021/12/16 11:22:29;;;;;;;;;;;;;;;14.06;46.18;100835.88;4477352;32;35481;-76
2021/12/16 11:24:57;;;;;;;;;;;;;;;13.16;48.15;100832.28;4473040;32;33848;-74
2021/12/16 11:27:27;;;;;;;;;;;;;;;13.22;47.97;100831.88;4474359;32;33162;-74
2021/12/16 11:29:55;;;;;;;;;;;;;;;12.87;49.39;100835.12;4473902;32;33999;-75
2021/12/16 11:32:37;;;;;;;;;;;;;;;13.19;48.43;100829.41;4468369;32;35114;-77
2021/12/16 11:35:23;;;;;;;;;;;;;;;13.12;48.69;100822.72;4475442;32;33637;-75
2021/12/16 11:37:51;;;;;;;;;;;;;;;13.57;47.76;100820.53;4468935;32;33339;-76
2021/12/16 11:40:18;;;;;;;;;;;;;;;14.23;46.01;100822.06;4478037;32;34356;-77
2021/12/16 11:42:59;;;;;;;;;;;;;;;13.20;48.43;100820.37;4468433;32;34311;-78
2021/12/16 11:45:34;;;;;;;;;;;;;;;13.06;48.59;100818.62;4468125;32;34019;-76
2021/12/16 11:48:03;;;;;;;;;;;;;;;12.24;51.28;100815.12;4469143;32;32951;-75
2021/12/16 11:50:37;;;;;;;;;;;;;;;13.18;48.78;100808.88;4471240;32;34024;-76
2021/12/16 11:53:05;;;;;;;;;;;;;;;13.03;49.37;100803.59;4472975;32;34113;-76
2021/12/16 11:55:34;;;;;;;;;;;;;;;12.02;51.57;100798.66;4469488;32;34116;-76
2021/12/16 11:58:03;;;;;;;;;;;;;;;12.57;50.75;100801.28;4472736;32;33416;-77
2021/12/16 12:00:32;;;;;;;;;;;;;;;12.87;50.00;100800.19;4466158;32;34244;-75
2021/12/16 12:03:01;;;;;;;;;;;;;;;12.88;50.20;100801.09;4469505;32;34279;-75
2021/12/16 12:05:42;;;;;;;;;;;;;;;12.77;50.08;100794.56;4468853;32;34104;-75
2021/12/16 12:08:12;;;;;;;;;;;;;;;13.05;49.48;100800.78;4469910;32;32183;-75
2021/12/16 12:10:42;;;;;;;;;;;;;;;13.18;49.28;100790.91;4467963;32;33702;-76
2021/12/16 12:13:12;;;;;;;;;;;;;;;12.86;50.02;100794.94;4473996;32;33090;-77
2021/12/16 12:15:51;;;;;;;;;;;;;;;13.32;48.92;100792.66;4475323;32;33985;-77
2021/12/16 12:18:39;;;;;;;;;;;;;;;13.57;48.26;100793.66;4468567;32;31913;-74
2021/12/16 12:21:25;;;;;;;;;;;;;;;12.69;50.72;100798.78;4470920;31;33996;-76
2021/12/16 12:23:57;;;;;;;;;;;;;;;12.43;51.13;100792.44;4468232;32;34036;-76
2021/12/16 12:26:25;;;;;;;;;;;;;;;12.19;51.91;100797.56;4474764;32;32346;-76
2021/12/16 12:28:54;;;;;;;;;;;;;;;12.66;50.39;100796.28;4473162;32;34349;-76
2021/12/16 12:31:22;;;;;;;;;;;;;;;12.52;50.97;100805.22;4469083;32;32949;-75
2021/12/16 12:33:50;;;;;;;;;;;;;;;13.63;48.50;100796.75;4469893;32;34177;-76
2021/12/16 12:36:19;;;;;;;;;;;;;;;13.21;49.11;100792.53;4470872;32;32891;-76
2021/12/16 12:38:46;;;;;;;;;;;;;;;13.40;48.50;100798.38;4476267;32;34182;-76
2021/12/16 12:41:13;;;;;;;;;;;;;;;13.50;48.22;100791.38;4456348;32;32566;-76
2021/12/16 12:43:41;;;;;;;;;;;;;;;13.52;47.99;100793.97;4470652;32;34198;-77
2021/12/16 12:46:10;;;;;;;;;;;;;;;12.81;50.10;100793.44;4476335;32;33618;-75
2021/12/16 12:48:38;;;;;;;;;;;;;;;13.59;48.25;100789.03;4477709;32;33665;-76
2021/12/16 12:51:06;;;;;;;;;;;;;;;13.18;48.96;100790.06;4465711;32;34270;-76
2021/12/16 12:53:38;;;;;;;;;;;;;;;13.96;47.51;100787.22;4463362;32;32385;-75
2021/12/16 12:56:12;;;;;;;;;;;;;;;13.13;49.20;100789.50;4468324;32;34142;-77
2021/12/16 12:58:48;;;;;;;;;;;;;;;13.51;48.33;100786.84;4469572;32;32547;-76
2021/12/16 13:01:16;;;;;;;;;;;;;;;13.47;48.21;100791.59;4465767;32;32884;-75
2021/12/16 13:03:43;;;;;;;;;;;;;;;13.88;47.31;100789.63;4466772;32;32335;-77
2021/12/16 13:06:15;;;;;;;;;;;;;;;14.23;46.27;100792.47;4466522;32;33304;-75
2021/12/16 13:08:48;;;;;;;;;;;;;;;13.86;47.49;100788.88;4466804;32;34537;-78
2021/12/16 13:11:19;;;;;;;;;;;;;;;14.05;46.47;100791.09;4463036;32;34051;-76
2021/12/16 13:14:19;;;;;;;;;;;;;;;12.97;49.18;100790.56;4470888;32;34274;-75
2021/12/16 13:31:06;;;;;;;;;;;;;;;13.87;46.91;100804.06;4469178;32;33448;-80
2021/12/16 13:33:42;;;;;;;;;;;;;;;13.23;48.84;100801.34;4464176;32;32938;-77
2021/12/16 13:36:18;;;;;;;;;;;;;;;13.74;48.19;100810.31;4464884;32;35314;-79
2021/12/16 13:38:47;;;;;;;;;;;;;;;13.96;46.77;100809.66;4470804;32;32337;-78
2021/12/16 13:41:17;;;;;;;;;;;;;;;14.82;44.63;100811.41;4464537;32;33944;-75
2021/12/16 13:44:10;;;;;;;;;;;;;;;13.80;47.61;100824.28;4467046;32;34222;-75
2021/12/16 13:47:04;;;;;;;;;;;;;;;13.32;48.48;100816.00;4465987;32;34304;-75
2021/12/16 13:58:19;;;;;;;;;;;;;;;14.49;45.82;100825.53;4465143;32;33807;-73
2021/12/16 14:01:13;;;;;;;;;;;;;;;14.13;46.14;100821.88;4466643;31;34287;-77
2021/12/16 14:03:53;;;;;;;;;;;;;;;14.10;45.93;100821.25;4451305;32;31196;-83
2021/12/16 14:06:33;;;;;;;;;;;;;;;14.54;45.42;100820.72;4465297;31;34189;-77
2021/12/16 14:09:12;;;;;;;;;;;;;;;14.53;45.31;100821.66;4468653;32;33121;-77
2021/12/16 14:14:41;;;;;;;;;;;;;;;15.37;43.05;100819.78;4465981;32;32225;-74
2021/12/16 14:17:30;;;;;;;;;;;;;;;15.22;43.79;100815.59;4466548;32;33880;-78
2021/12/16 14:23:05;;;;;;;;;;;;;;;14.98;44.07;100815.63;4473476;32;33839;-78
2021/12/16 14:25:54;;;;;;;;;;;;;;;15.16;43.70;100825.03;4467933;32;33248;-77
2021/12/16 14:34:52;;;;;;;;;;;;;;;15.45;43.11;100825.47;4423585;32;33686;-75
2021/12/16 14:50:17;;;;;;;;;;;;;;;15.55;42.84;100831.00;4472469;32;33671;-77
2021/12/16 14:52:44;;;;;;;;;;;;;;;15.32;43.91;100833.66;4469874;32;34118;-80
2021/12/16 14:55:15;;;;;;;;;;;;;;;15.25;43.40;100836.91;4470516;32;32322;-79
2021/12/16 14:57:43;;;;;;;;;;;;;;;14.84;44.70;100835.56;4459687;32;33294;-75
2021/12/16 15:00:34;;;;;;;;;;;;;;;16.11;41.28;100827.47;4467147;32;34383;-78
2021/12/16 15:03:13;;;;;;;;;;;;;;;15.92;41.33;100823.59;4474512;32;33787;-78
2021/12/16 15:05:44;;;;;;;;;;;;;;;14.96;44.10;100831.06;4471145;32;33985;-75
2021/12/16 15:08:16;;;;;;;;;;;;;;;15.30;43.24;100834.75;4469671;32;33448;-76
2021/12/16 15:10:44;;;;;;;;;;;;;;;14.79;44.46;100829.63;4470799;32;32808;-76
2021/12/16 15:13:22;;;;;;;;;;;;;;;15.19;43.30;100823.94;4472820;32;35503;-69
2021/12/16 15:16:12;;;;;;;;;;;;;;;15.58;42.34;100834.31;4470957;32;33959;-76
2021/12/16 15:42:46;;;;;;;;;;;;;;;14.13;46.03;100819.19;4475113;32;32662;-75
2021/12/16 15:43:48;;;;;;;;;;;;;;;13.64;47.37;100820.03;4470198;32;35167;-77
2021/12/16 15:46:17;;;;;;;;;;;;;;;13.14;48.73;100818.12;4467578;32;34274;-76
2021/12/16 15:48:48;;;;;;;;;;;;;;;12.92;49.13;100826.78;4469689;32;32743;-75
2021/12/16 15:51:16;;;;;;;;;;;;;;;10.82;55.85;100831.88;4466143;32;33462;-77
2021/12/16 15:53:48;;;;;;;;;;;;;;;11.33;54.18;100822.59;4470894;32;33330;-74
2021/12/16 15:56:23;;;;;;;;;;;;;;;11.81;52.95;100831.25;4465277;32;35395;-75
2021/12/16 15:58:53;;;;;;;;;;;;;;;11.69;53.55;100834.69;4467028;32;32713;-75
2021/12/16 16:01:22;;;;;;;;;;;;;;;11.83;53.10;100828.44;4469513;32;33936;-77
2021/12/16 16:03:51;;;;;;;;;;;;;;;11.87;52.64;100828.19;4473522;32;34385;-78
2021/12/16 16:06:19;;;;;;;;;;;;;;;11.70;52.82;100832.84;4475197;32;34219;-75
2021/12/16 16:08:48;;;;;;;;;;;;;;;11.46;52.96;100828.06;4466530;32;34117;-74
2021/12/16 16:11:17;;;;;;;;;;;;;;;12.31;51.54;100829.84;4475152;32;33254;-76
2021/12/16 16:13:49;;;;;;;;;;;;;;;11.82;52.59;100846.38;4473397;32;33847;-75
2021/12/16 16:16:20;;;;;;;;;;;;;;;11.37;54.05;100845.56;4467161;32;34340;-74
2021/12/16 16:19:00;;;;;;;;;;;;;;;11.19;54.20;100847.53;4470116;32;32698;-76
2021/12/16 16:21:30;;;;;;;;;;;;;;;11.94;52.39;100843.91;4469686;32;34048;-76
2021/12/16 16:23:59;;;;;;;;;;;;;;;11.05;54.24;100839.44;4472698;32;31763;-74
2021/12/16 16:26:28;;;;;;;;;;;;;;;11.50;53.73;100850.19;4469114;32;33564;-75
2021/12/16 16:28:57;;;;;;;;;;;;;;;11.52;53.63;100849.09;4464114;32;35136;-75